sensor_id;sensor_type;location;lat;lon;timestamp;P1;durP1;ratioP1;P2;durP2;ratioP2
6840;SDS011;3458;53.678;14.080;2022-09-27T00:02:13;7.53;;;2.40;;
6840;SDS011;3458;53.678;14.080;2022-09-27T00:04:40;2.53;;;2.13;;
6840;SDS011;3458;53.678;14.080;2022-09-27T00:07:06;5.67;;;3.27;;
6840;SDS011;3458;53.678;14.080;2022-09-27T00:09:32;3.20;;;2.50;;
6840;SDS011;3458;53.678;14.080;2022-09-27T00:11:58;6.00;;;2.70;;
6840;SDS011;3458;53.678;14.080;2022-09-27T00:14:24;3.63;;;2.10;;
6840;SDS011;3458;53.678;14.080;2022-09-27T00:16:50;3.70;;;2.73;;
6840;SDS011;3458;53.678;14.080;2022-09-27T00:19:17;6.40;;;3.10;;
6840;SDS011;3458;53.678;14.080;2022-09-27T00:21:44;4.50;;;2.50;;
6840;SDS011;3458;53.678;14.080;2022-09-27T00:24:14;12.43;;;3.40;;
6840;SDS011;3458;53.678;14.080;2022-09-27T00:26:40;6.40;;;2.57;;
6840;SDS011;3458;53.678;14.080;2022-09-27T00:29:07;4.67;;;2.50;;
6840;SDS011;3458;53.678;14.080;2022-09-27T00:31:34;3.87;;;2.60;;
6840;SDS011;3458;53.678;14.080;2022-09-27T00:34:01;2.77;;;2.33;;
6840;SDS011;3458;53.678;14.080;2022-09-27T00:36:28;3.33;;;2.10;;
6840;SDS011;3458;53.678;14.080;2022-09-27T00:38:54;5.30;;;3.00;;
6840;SDS011;3458;53.678;14.080;2022-09-27T00:41:22;5.40;;;2.60;;
6840;SDS011;3458;53.678;14.080;2022-09-27T00:43:51;3.37;;;2.47;;
6840;SDS011;3458;53.678;14.080;2022-09-27T00:46:18;4.07;;;2.93;;
6840;SDS011;3458;53.678;14.080;2022-09-27T00:48:46;7.23;;;2.50;;
6840;SDS011;3458;53.678;14.080;2022-09-27T00:51:13;2.80;;;2.60;;
6840;SDS011;3458;53.678;14.080;2022-09-27T00:53:44;3.33;;;2.47;;
6840;SDS011;3458;53.678;14.080;2022-09-27T00:56:15;3.33;;;2.50;;
6840;SDS011;3458;53.678;14.080;2022-09-27T00:58:44;5.20;;;2.53;;
6840;SDS011;3458;53.678;14.080;2022-09-27T01:01:11;2.87;;;2.60;;
6840;SDS011;3458;53.678;14.080;2022-09-27T01:03:58;8.87;;;2.60;;
6840;SDS011;3458;53.678;14.080;2022-09-27T01:06:25;3.53;;;2.63;;
6840;SDS011;3458;53.678;14.080;2022-09-27T01:08:51;6.13;;;3.20;;
6840;SDS011;3458;53.678;14.080;2022-09-27T01:11:31;3.43;;;2.33;;
6840;SDS011;3458;53.678;14.080;2022-09-27T01:14:23;6.60;;;2.70;;
6840;SDS011;3458;53.678;14.080;2022-09-27T01:17:07;3.13;;;2.40;;
6840;SDS011;3458;53.678;14.080;2022-09-27T01:19:45;6.23;;;2.70;;
6840;SDS011;3458;53.678;14.080;2022-09-27T01:28:15;3.03;;;2.53;;
6840;SDS011;3458;53.678;14.080;2022-09-27T01:30:29;5.37;;;2.57;;
6840;SDS011;3458;53.678;14.080;2022-09-27T01:38:18;4.50;;;2.60;;
6840;SDS011;3458;53.678;14.080;2022-09-27T01:40:55;4.50;;;2.50;;
6840;SDS011;3458;53.678;14.080;2022-09-27T01:43:29;3.73;;;2.60;;
6840;SDS011;3458;53.678;14.080;2022-09-27T01:46:06;4.60;;;2.90;;
6840;SDS011;3458;53.678;14.080;2022-09-27T01:48:39;3.93;;;2.70;;
6840;SDS011;3458;53.678;14.080;2022-09-27T01:51:08;6.20;;;2.50;;
6840;SDS011;3458;53.678;14.080;2022-09-27T01:53:37;3.20;;;2.87;;
6840;SDS011;3458;53.678;14.080;2022-09-27T01:56:05;3.07;;;2.77;;
6840;SDS011;3458;53.678;14.080;2022-09-27T01:58:36;6.80;;;2.33;;
6840;SDS011;3458;53.678;14.080;2022-09-27T02:01:03;7.83;;;2.60;;
6840;SDS011;3458;53.678;14.080;2022-09-27T02:03:32;3.00;;;2.73;;
6840;SDS011;3458;53.678;14.080;2022-09-27T02:06:04;5.40;;;2.50;;
6840;SDS011;3458;53.678;14.080;2022-09-27T02:08:35;9.60;;;3.27;;
6840;SDS011;3458;53.678;14.080;2022-09-27T02:11:07;4.40;;;2.33;;
6840;SDS011;3458;53.678;14.080;2022-09-27T02:13:45;7.37;;;3.07;;
6840;SDS011;3458;53.678;14.080;2022-09-27T02:16:17;4.77;;;2.87;;
6840;SDS011;3458;53.678;14.080;2022-09-27T02:21:42;2.93;;;2.67;;
6840;SDS011;3458;53.678;14.080;2022-09-27T02:24:11;5.80;;;3.00;;
6840;SDS011;3458;53.678;14.080;2022-09-27T02:26:40;13.90;;;3.30;;
6840;SDS011;3458;53.678;14.080;2022-09-27T02:31:36;3.43;;;2.77;;
6840;SDS011;3458;53.678;14.080;2022-09-27T02:34:04;5.43;;;2.93;;
6840;SDS011;3458;53.678;14.080;2022-09-27T02:36:31;6.33;;;3.83;;
6840;SDS011;3458;53.678;14.080;2022-09-27T02:38:57;5.40;;;2.80;;
6840;SDS011;3458;53.678;14.080;2022-09-27T02:41:24;3.37;;;2.60;;
6840;SDS011;3458;53.678;14.080;2022-09-27T02:43:51;4.00;;;3.00;;
6840;SDS011;3458;53.678;14.080;2022-09-27T02:49:26;3.30;;;3.00;;
6840;SDS011;3458;53.678;14.080;2022-09-27T02:54:43;6.13;;;3.00;;
6840;SDS011;3458;53.678;14.080;2022-09-27T02:59:49;4.60;;;3.47;;
6840;SDS011;3458;53.678;14.080;2022-09-27T03:02:25;8.73;;;2.97;;
6840;SDS011;3458;53.678;14.080;2022-09-27T03:04:58;5.80;;;3.57;;
6840;SDS011;3458;53.678;14.080;2022-09-27T03:07:25;5.27;;;3.40;;
6840;SDS011;3458;53.678;14.080;2022-09-27T03:09:52;6.60;;;3.00;;
6840;SDS011;3458;53.678;14.080;2022-09-27T03:12:18;3.70;;;3.00;;
6840;SDS011;3458;53.678;14.080;2022-09-27T03:14:50;6.70;;;2.97;;
6840;SDS011;3458;53.678;14.080;2022-09-27T03:17:16;5.93;;;3.40;;
6840;SDS011;3458;53.678;14.080;2022-09-27T03:19:42;4.00;;;3.20;;
6840;SDS011;3458;53.678;14.080;2022-09-27T03:22:08;3.30;;;2.90;;
6840;SDS011;3458;53.678;14.080;2022-09-27T03:24:34;4.83;;;3.60;;
6840;SDS011;3458;53.678;14.080;2022-09-27T03:27:00;5.80;;;3.93;;
6840;SDS011;3458;53.678;14.080;2022-09-27T03:29:27;6.90;;;3.33;;
6840;SDS011;3458;53.678;14.080;2022-09-27T03:31:53;6.30;;;3.60;;
6840;SDS011;3458;53.678;14.080;2022-09-27T03:34:19;8.00;;;3.37;;
6840;SDS011;3458;53.678;14.080;2022-09-27T03:36:46;7.83;;;3.87;;
6840;SDS011;3458;53.678;14.080;2022-09-27T03:39:13;6.47;;;3.67;;
6840;SDS011;3458;53.678;14.080;2022-09-27T03:41:39;7.73;;;3.50;;
6840;SDS011;3458;53.678;14.080;2022-09-27T03:44:05;5.93;;;3.90;;
6840;SDS011;3458;53.678;14.080;2022-09-27T03:46:32;6.40;;;3.83;;
6840;SDS011;3458;53.678;14.080;2022-09-27T03:48:58;4.50;;;3.70;;
6840;SDS011;3458;53.678;14.080;2022-09-27T03:51:24;4.27;;;3.63;;
6840;SDS011;3458;53.678;14.080;2022-09-27T03:53:50;9.47;;;3.07;;
6840;SDS011;3458;53.678;14.080;2022-09-27T03:56:16;13.83;;;3.70;;
6840;SDS011;3458;53.678;14.080;2022-09-27T03:58:42;5.97;;;3.80;;
6840;SDS011;3458;53.678;14.080;2022-09-27T04:01:08;6.53;;;4.23;;
6840;SDS011;3458;53.678;14.080;2022-09-27T04:03:34;6.40;;;3.63;;
6840;SDS011;3458;53.678;14.080;2022-09-27T04:06:00;7.10;;;3.70;;
6840;SDS011;3458;53.678;14.080;2022-09-27T04:08:26;13.53;;;3.70;;
6840;SDS011;3458;53.678;14.080;2022-09-27T04:10:52;4.83;;;3.07;;
6840;SDS011;3458;53.678;14.080;2022-09-27T04:13:18;4.20;;;3.40;;
6840;SDS011;3458;53.678;14.080;2022-09-27T04:15:45;6.33;;;3.80;;
6840;SDS011;3458;53.678;14.080;2022-09-27T04:18:11;4.30;;;3.57;;
6840;SDS011;3458;53.678;14.080;2022-09-27T04:20:37;15.17;;;3.57;;
6840;SDS011;3458;53.678;14.080;2022-09-27T04:23:03;3.53;;;3.13;;
6840;SDS011;3458;53.678;14.080;2022-09-27T04:25:29;4.30;;;3.13;;
6840;SDS011;3458;53.678;14.080;2022-09-27T04:27:56;3.80;;;3.27;;
6840;SDS011;3458;53.678;14.080;2022-09-27T04:30:22;10.47;;;3.10;;
6840;SDS011;3458;53.678;14.080;2022-09-27T04:32:50;4.30;;;3.20;;
6840;SDS011;3458;53.678;14.080;2022-09-27T04:35:16;6.00;;;3.60;;
6840;SDS011;3458;53.678;14.080;2022-09-27T04:38:01;2.97;;;2.60;;
6840;SDS011;3458;53.678;14.080;2022-09-27T04:40:27;3.80;;;2.90;;
6840;SDS011;3458;53.678;14.080;2022-09-27T04:42:53;5.70;;;3.60;;
6840;SDS011;3458;53.678;14.080;2022-09-27T04:45:19;5.70;;;3.87;;
6840;SDS011;3458;53.678;14.080;2022-09-27T04:47:46;5.90;;;4.10;;
6840;SDS011;3458;53.678;14.080;2022-09-27T04:50:12;6.80;;;3.53;;
6840;SDS011;3458;53.678;14.080;2022-09-27T04:52:38;4.07;;;3.00;;
6840;SDS011;3458;53.678;14.080;2022-09-27T04:55:05;3.80;;;2.77;;
6840;SDS011;3458;53.678;14.080;2022-09-27T04:57:31;6.37;;;2.90;;
6840;SDS011;3458;53.678;14.080;2022-09-27T04:59:57;4.67;;;3.07;;
6840;SDS011;3458;53.678;14.080;2022-09-27T05:02:26;4.80;;;3.00;;
6840;SDS011;3458;53.678;14.080;2022-09-27T05:04:55;5.30;;;3.37;;
6840;SDS011;3458;53.678;14.080;2022-09-27T05:07:23;6.40;;;3.00;;
6840;SDS011;3458;53.678;14.080;2022-09-27T05:09:49;4.57;;;3.20;;
6840;SDS011;3458;53.678;14.080;2022-09-27T05:12:15;8.10;;;3.40;;
6840;SDS011;3458;53.678;14.080;2022-09-27T05:14:41;6.00;;;3.40;;
6840;SDS011;3458;53.678;14.080;2022-09-27T05:17:07;7.17;;;3.17;;
6840;SDS011;3458;53.678;14.080;2022-09-27T05:19:34;3.83;;;3.13;;
6840;SDS011;3458;53.678;14.080;2022-09-27T05:22:00;9.63;;;4.10;;
6840;SDS011;3458;53.678;14.080;2022-09-27T05:24:26;4.73;;;3.27;;
6840;SDS011;3458;53.678;14.080;2022-09-27T05:26:52;3.30;;;2.80;;
6840;SDS011;3458;53.678;14.080;2022-09-27T05:29:18;5.03;;;3.23;;
6840;SDS011;3458;53.678;14.080;2022-09-27T05:31:44;4.43;;;3.30;;
6840;SDS011;3458;53.678;14.080;2022-09-27T05:34:11;5.30;;;3.30;;
6840;SDS011;3458;53.678;14.080;2022-09-27T05:36:37;3.80;;;3.03;;
6840;SDS011;3458;53.678;14.080;2022-09-27T05:39:03;4.73;;;3.50;;
6840;SDS011;3458;53.678;14.080;2022-09-27T05:41:30;11.27;;;4.03;;
6840;SDS011;3458;53.678;14.080;2022-09-27T05:43:56;3.87;;;3.47;;
6840;SDS011;3458;53.678;14.080;2022-09-27T05:46:22;5.07;;;3.60;;
6840;SDS011;3458;53.678;14.080;2022-09-27T05:48:48;4.83;;;3.60;;
6840;SDS011;3458;53.678;14.080;2022-09-27T05:51:14;6.30;;;3.27;;
6840;SDS011;3458;53.678;14.080;2022-09-27T05:53:40;3.70;;;3.20;;
6840;SDS011;3458;53.678;14.080;2022-09-27T05:56:06;4.60;;;3.20;;
6840;SDS011;3458;53.678;14.080;2022-09-27T05:58:32;3.90;;;3.50;;
6840;SDS011;3458;53.678;14.080;2022-09-27T06:00:58;8.30;;;3.30;;
6840;SDS011;3458;53.678;14.080;2022-09-27T06:03:24;12.93;;;3.87;;
6840;SDS011;3458;53.678;14.080;2022-09-27T06:05:50;8.10;;;3.47;;
6840;SDS011;3458;53.678;14.080;2022-09-27T06:08:16;6.83;;;3.60;;
6840;SDS011;3458;53.678;14.080;2022-09-27T06:10:44;6.07;;;4.37;;
6840;SDS011;3458;53.678;14.080;2022-09-27T06:13:12;7.77;;;6.83;;
6840;SDS011;3458;53.678;14.080;2022-09-27T06:15:39;7.17;;;5.00;;
6840;SDS011;3458;53.678;14.080;2022-09-27T06:18:06;11.60;;;3.77;;
6840;SDS011;3458;53.678;14.080;2022-09-27T06:20:33;13.23;;;7.20;;
6840;SDS011;3458;53.678;14.080;2022-09-27T06:23:03;8.83;;;4.60;;
6840;SDS011;3458;53.678;14.080;2022-09-27T06:25:29;4.23;;;3.80;;
6840;SDS011;3458;53.678;14.080;2022-09-27T06:27:55;7.00;;;4.27;;
6840;SDS011;3458;53.678;14.080;2022-09-27T06:30:21;8.40;;;4.50;;
6840;SDS011;3458;53.678;14.080;2022-09-27T06:32:47;6.10;;;4.73;;
6840;SDS011;3458;53.678;14.080;2022-09-27T06:35:13;7.70;;;4.33;;
6840;SDS011;3458;53.678;14.080;2022-09-27T06:37:39;7.33;;;3.90;;
6840;SDS011;3458;53.678;14.080;2022-09-27T06:40:05;8.40;;;4.70;;
6840;SDS011;3458;53.678;14.080;2022-09-27T06:42:33;6.27;;;4.47;;
6840;SDS011;3458;53.678;14.080;2022-09-27T06:44:59;7.90;;;4.37;;
6840;SDS011;3458;53.678;14.080;2022-09-27T06:47:24;6.27;;;4.93;;
6840;SDS011;3458;53.678;14.080;2022-09-27T06:49:51;9.73;;;4.30;;
6840;SDS011;3458;53.678;14.080;2022-09-27T06:52:17;9.97;;;5.50;;
6840;SDS011;3458;53.678;14.080;2022-09-27T06:54:42;9.63;;;5.80;;
6840;SDS011;3458;53.678;14.080;2022-09-27T06:57:08;9.37;;;5.23;;
6840;SDS011;3458;53.678;14.080;2022-09-27T06:59:54;5.60;;;5.00;;
6840;SDS011;3458;53.678;14.080;2022-09-27T07:02:46;7.80;;;5.00;;
6840;SDS011;3458;53.678;14.080;2022-09-27T07:05:12;8.40;;;6.00;;
6840;SDS011;3458;53.678;14.080;2022-09-27T07:07:38;7.60;;;5.37;;
6840;SDS011;3458;53.678;14.080;2022-09-27T07:10:04;9.40;;;5.40;;
6840;SDS011;3458;53.678;14.080;2022-09-27T07:12:30;11.03;;;6.07;;
6840;SDS011;3458;53.678;14.080;2022-09-27T07:14:57;15.30;;;7.90;;
6840;SDS011;3458;53.678;14.080;2022-09-27T07:17:23;10.00;;;6.50;;
6840;SDS011;3458;53.678;14.080;2022-09-27T07:19:51;6.20;;;5.27;;
6840;SDS011;3458;53.678;14.080;2022-09-27T07:22:18;7.30;;;5.67;;
6840;SDS011;3458;53.678;14.080;2022-09-27T07:24:44;11.40;;;6.60;;
6840;SDS011;3458;53.678;14.080;2022-09-27T07:27:10;11.43;;;5.00;;
6840;SDS011;3458;53.678;14.080;2022-09-27T07:29:36;6.97;;;4.80;;
6840;SDS011;3458;53.678;14.080;2022-09-27T07:32:02;8.53;;;6.10;;
6840;SDS011;3458;53.678;14.080;2022-09-27T07:34:28;10.60;;;6.13;;
6840;SDS011;3458;53.678;14.080;2022-09-27T07:36:57;9.77;;;5.87;;
6840;SDS011;3458;53.678;14.080;2022-09-27T07:39:23;12.00;;;6.43;;
6840;SDS011;3458;53.678;14.080;2022-09-27T07:41:49;9.87;;;6.03;;
6840;SDS011;3458;53.678;14.080;2022-09-27T07:44:16;9.83;;;6.03;;
6840;SDS011;3458;53.678;14.080;2022-09-27T07:46:42;9.63;;;6.27;;
6840;SDS011;3458;53.678;14.080;2022-09-27T07:49:08;8.87;;;5.80;;
6840;SDS011;3458;53.678;14.080;2022-09-27T07:51:34;7.93;;;6.00;;
6840;SDS011;3458;53.678;14.080;2022-09-27T07:54:00;9.30;;;6.07;;
6840;SDS011;3458;53.678;14.080;2022-09-27T07:56:26;6.30;;;5.17;;
6840;SDS011;3458;53.678;14.080;2022-09-27T07:58:52;11.87;;;6.30;;
6840;SDS011;3458;53.678;14.080;2022-09-27T08:01:18;7.23;;;5.70;;
6840;SDS011;3458;53.678;14.080;2022-09-27T08:03:45;10.50;;;5.60;;
6840;SDS011;3458;53.678;14.080;2022-09-27T08:06:11;8.83;;;6.00;;
6840;SDS011;3458;53.678;14.080;2022-09-27T08:08:37;7.93;;;5.33;;
6840;SDS011;3458;53.678;14.080;2022-09-27T08:11:16;22.47;;;5.57;;
6840;SDS011;3458;53.678;14.080;2022-09-27T08:13:43;10.67;;;5.47;;
6840;SDS011;3458;53.678;14.080;2022-09-27T08:16:09;10.93;;;5.30;;
6840;SDS011;3458;53.678;14.080;2022-09-27T08:18:35;8.50;;;5.17;;
6840;SDS011;3458;53.678;14.080;2022-09-27T08:21:01;6.07;;;5.00;;
6840;SDS011;3458;53.678;14.080;2022-09-27T08:23:28;5.90;;;4.63;;
6840;SDS011;3458;53.678;14.080;2022-09-27T08:25:54;7.10;;;5.00;;
6840;SDS011;3458;53.678;14.080;2022-09-27T08:28:21;7.70;;;5.53;;
6840;SDS011;3458;53.678;14.080;2022-09-27T08:30:48;5.63;;;4.50;;
6840;SDS011;3458;53.678;14.080;2022-09-27T08:33:15;6.23;;;5.60;;
6840;SDS011;3458;53.678;14.080;2022-09-27T08:35:41;8.03;;;4.53;;
6840;SDS011;3458;53.678;14.080;2022-09-27T08:38:07;7.17;;;4.90;;
6840;SDS011;3458;53.678;14.080;2022-09-27T08:40:41;7.30;;;5.30;;
6840;SDS011;3458;53.678;14.080;2022-09-27T08:43:12;7.37;;;5.10;;
6840;SDS011;3458;53.678;14.080;2022-09-27T08:48:17;6.50;;;4.30;;
6840;SDS011;3458;53.678;14.080;2022-09-27T08:50:43;6.70;;;4.60;;
6840;SDS011;3458;53.678;14.080;2022-09-27T08:55:40;11.60;;;6.90;;
6840;SDS011;3458;53.678;14.080;2022-09-27T08:58:24;8.57;;;5.20;;
6840;SDS011;3458;53.678;14.080;2022-09-27T09:00:54;7.40;;;4.17;;
6840;SDS011;3458;53.678;14.080;2022-09-27T09:03:22;9.20;;;5.30;;
6840;SDS011;3458;53.678;14.080;2022-09-27T09:06:03;6.17;;;4.40;;
6840;SDS011;3458;53.678;14.080;2022-09-27T09:11:05;6.40;;;4.57;;
6840;SDS011;3458;53.678;14.080;2022-09-27T09:13:56;6.37;;;3.83;;
6840;SDS011;3458;53.678;14.080;2022-09-27T09:16:29;5.30;;;3.80;;
6840;SDS011;3458;53.678;14.080;2022-09-27T09:21:30;6.23;;;3.73;;
6840;SDS011;3458;53.678;14.080;2022-09-27T09:24:08;5.77;;;3.73;;
6840;SDS011;3458;53.678;14.080;2022-09-27T09:34:33;3.30;;;2.90;;
6840;SDS011;3458;53.678;14.080;2022-09-27T09:39:58;15.30;;;4.50;;
6840;SDS011;3458;53.678;14.080;2022-09-27T09:42:32;3.30;;;2.93;;
6840;SDS011;3458;53.678;14.080;2022-09-27T09:47:28;3.60;;;2.73;;
6840;SDS011;3458;53.678;14.080;2022-09-27T09:50:00;7.27;;;5.40;;
6840;SDS011;3458;53.678;14.080;2022-09-27T09:52:37;5.07;;;3.40;;
6840;SDS011;3458;53.678;14.080;2022-09-27T09:55:21;3.20;;;2.50;;
6840;SDS011;3458;53.678;14.080;2022-09-27T10:00:34;4.20;;;2.30;;
6840;SDS011;3458;53.678;14.080;2022-09-27T10:02:59;5.83;;;2.60;;
6840;SDS011;3458;53.678;14.080;2022-09-27T10:05:26;2.77;;;2.20;;
6840;SDS011;3458;53.678;14.080;2022-09-27T10:07:54;2.77;;;2.20;;
6840;SDS011;3458;53.678;14.080;2022-09-27T10:10:21;2.70;;;2.50;;
6840;SDS011;3458;53.678;14.080;2022-09-27T10:12:48;3.20;;;2.60;;
6840;SDS011;3458;53.678;14.080;2022-09-27T10:15:18;5.37;;;3.30;;
6840;SDS011;3458;53.678;14.080;2022-09-27T10:17:46;4.53;;;3.23;;
6840;SDS011;3458;53.678;14.080;2022-09-27T10:23:08;5.70;;;4.53;;
6840;SDS011;3458;53.678;14.080;2022-09-27T10:25:55;7.07;;;3.90;;
6840;SDS011;3458;53.678;14.080;2022-09-27T10:28:26;5.50;;;4.17;;
6840;SDS011;3458;53.678;14.080;2022-09-27T10:30:55;7.30;;;4.30;;
6840;SDS011;3458;53.678;14.080;2022-09-27T10:33:21;7.70;;;4.10;;
6840;SDS011;3458;53.678;14.080;2022-09-27T10:35:48;5.37;;;4.63;;
6840;SDS011;3458;53.678;14.080;2022-09-27T10:40:47;5.00;;;3.90;;
6840;SDS011;3458;53.678;14.080;2022-09-27T10:48:39;4.50;;;3.30;;
6840;SDS011;3458;53.678;14.080;2022-09-27T10:51:16;8.60;;;4.30;;
6840;SDS011;3458;53.678;14.080;2022-09-27T10:53:46;6.07;;;4.50;;
6840;SDS011;3458;53.678;14.080;2022-09-27T10:56:23;7.50;;;4.90;;
6840;SDS011;3458;53.678;14.080;2022-09-27T10:58:49;5.60;;;5.00;;
6840;SDS011;3458;53.678;14.080;2022-09-27T11:01:15;5.60;;;4.37;;
6840;SDS011;3458;53.678;14.080;2022-09-27T11:03:45;5.60;;;5.00;;
6840;SDS011;3458;53.678;14.080;2022-09-27T11:08:47;4.33;;;3.80;;
6840;SDS011;3458;53.678;14.080;2022-09-27T11:11:18;11.40;;;4.30;;
6840;SDS011;3458;53.678;14.080;2022-09-27T11:14:04;8.20;;;4.90;;
6840;SDS011;3458;53.678;14.080;2022-09-27T11:19:20;7.53;;;4.47;;
6840;SDS011;3458;53.678;14.080;2022-09-27T11:21:52;9.50;;;4.97;;
6840;SDS011;3458;53.678;14.080;2022-09-27T11:29:44;6.70;;;5.13;;
6840;SDS011;3458;53.678;14.080;2022-09-27T11:37:48;10.60;;;5.10;;
6840;SDS011;3458;53.678;14.080;2022-09-27T11:42:57;6.43;;;4.90;;
6840;SDS011;3458;53.678;14.080;2022-09-27T11:45:45;13.30;;;4.57;;
6840;SDS011;3458;53.678;14.080;2022-09-27T11:48:22;4.87;;;4.37;;
6840;SDS011;3458;53.678;14.080;2022-09-27T11:50:59;6.10;;;4.90;;
6840;SDS011;3458;53.678;14.080;2022-09-27T11:56:01;5.07;;;4.00;;
6840;SDS011;3458;53.678;14.080;2022-09-27T11:58:30;4.60;;;4.00;;
6840;SDS011;3458;53.678;14.080;2022-09-27T12:01:08;3.47;;;3.10;;
6840;SDS011;3458;53.678;14.080;2022-09-27T12:03:54;4.07;;;3.63;;
6840;SDS011;3458;53.678;14.080;2022-09-27T12:06:35;8.53;;;3.23;;
6840;SDS011;3458;53.678;14.080;2022-09-27T12:11:45;5.43;;;3.40;;
6840;SDS011;3458;53.678;14.080;2022-09-27T12:16:58;3.83;;;3.50;;
6840;SDS011;3458;53.678;14.080;2022-09-27T12:19:34;3.63;;;2.70;;
6840;SDS011;3458;53.678;14.080;2022-09-27T12:22:02;3.10;;;2.90;;
6840;SDS011;3458;53.678;14.080;2022-09-27T12:24:29;4.40;;;3.23;;
6840;SDS011;3458;53.678;14.080;2022-09-27T12:26:57;4.80;;;2.70;;
6840;SDS011;3458;53.678;14.080;2022-09-27T12:29:31;4.00;;;2.90;;
6840;SDS011;3458;53.678;14.080;2022-09-27T12:32:01;3.50;;;3.20;;
6840;SDS011;3458;53.678;14.080;2022-09-27T12:34:36;6.43;;;4.43;;
6840;SDS011;3458;53.678;14.080;2022-09-27T12:37:08;3.40;;;3.10;;
6840;SDS011;3458;53.678;14.080;2022-09-27T12:39:45;7.00;;;3.67;;
6840;SDS011;3458;53.678;14.080;2022-09-27T12:42:15;6.00;;;3.50;;
6840;SDS011;3458;53.678;14.080;2022-09-27T12:44:42;3.40;;;3.10;;
6840;SDS011;3458;53.678;14.080;2022-09-27T12:47:12;4.03;;;3.00;;
6840;SDS011;3458;53.678;14.080;2022-09-27T12:50:02;2.70;;;2.50;;
6840;SDS011;3458;53.678;14.080;2022-09-27T12:52:30;2.97;;;2.70;;
6840;SDS011;3458;53.678;14.080;2022-09-27T12:55:07;3.37;;;3.10;;
6840;SDS011;3458;53.678;14.080;2022-09-27T12:57:50;4.40;;;3.73;;
6840;SDS011;3458;53.678;14.080;2022-09-27T13:00:25;5.13;;;4.23;;
6840;SDS011;3458;53.678;14.080;2022-09-27T13:05:33;5.23;;;4.20;;
6840;SDS011;3458;53.678;14.080;2022-09-27T13:10:57;4.87;;;3.17;;
6840;SDS011;3458;53.678;14.080;2022-09-27T13:13:29;2.00;;;1.90;;
6840;SDS011;3458;53.678;14.080;2022-09-27T13:15:57;5.23;;;2.60;;
6840;SDS011;3458;53.678;14.080;2022-09-27T13:21:05;4.23;;;3.57;;
6840;SDS011;3458;53.678;14.080;2022-09-27T13:26:20;1.60;;;1.50;;
6840;SDS011;3458;53.678;14.080;2022-09-27T13:31:12;3.07;;;1.87;;
6840;SDS011;3458;53.678;14.080;2022-09-27T13:33:43;2.20;;;2.00;;
6840;SDS011;3458;53.678;14.080;2022-09-27T13:36:15;2.03;;;1.83;;
6840;SDS011;3458;53.678;14.080;2022-09-27T13:41:25;2.97;;;2.30;;
6840;SDS011;3458;53.678;14.080;2022-09-27T13:43:58;2.17;;;1.97;;
6840;SDS011;3458;53.678;14.080;2022-09-27T13:46:29;1.70;;;1.60;;
6840;SDS011;3458;53.678;14.080;2022-09-27T13:49:02;7.57;;;3.00;;
6840;SDS011;3458;53.678;14.080;2022-09-27T13:51:41;2.07;;;1.90;;
6840;SDS011;3458;53.678;14.080;2022-09-27T13:56:53;2.83;;;2.40;;
6840;SDS011;3458;53.678;14.080;2022-09-27T14:01:48;8.20;;;4.20;;
6840;SDS011;3458;53.678;14.080;2022-09-27T14:04:16;12.00;;;4.77;;
6840;SDS011;3458;53.678;14.080;2022-09-27T14:06:44;7.37;;;2.67;;
6840;SDS011;3458;53.678;14.080;2022-09-27T14:09:19;8.80;;;3.80;;
6840;SDS011;3458;53.678;14.080;2022-09-27T14:11:48;10.00;;;3.40;;
6840;SDS011;3458;53.678;14.080;2022-09-27T14:14:21;10.30;;;3.90;;
6840;SDS011;3458;53.678;14.080;2022-09-27T14:16:48;14.30;;;4.20;;
6840;SDS011;3458;53.678;14.080;2022-09-27T14:19:15;9.77;;;3.60;;
6840;SDS011;3458;53.678;14.080;2022-09-27T14:21:42;9.60;;;3.80;;
6840;SDS011;3458;53.678;14.080;2022-09-27T14:24:28;13.13;;;4.70;;
6840;SDS011;3458;53.678;14.080;2022-09-27T14:27:14;10.73;;;4.60;;
6840;SDS011;3458;53.678;14.080;2022-09-27T14:29:45;8.60;;;4.27;;
6840;SDS011;3458;53.678;14.080;2022-09-27T14:32:12;19.07;;;7.47;;
6840;SDS011;3458;53.678;14.080;2022-09-27T14:34:38;20.40;;;7.20;;
6840;SDS011;3458;53.678;14.080;2022-09-27T14:37:05;9.10;;;4.00;;
6840;SDS011;3458;53.678;14.080;2022-09-27T14:39:54;13.83;;;4.83;;
6840;SDS011;3458;53.678;14.080;2022-09-27T14:42:21;8.67;;;3.80;;
6840;SDS011;3458;53.678;14.080;2022-09-27T14:44:48;4.17;;;3.37;;
6840;SDS011;3458;53.678;14.080;2022-09-27T14:47:22;4.13;;;3.70;;
6840;SDS011;3458;53.678;14.080;2022-09-27T14:49:50;2.30;;;2.10;;
6840;SDS011;3458;53.678;14.080;2022-09-27T14:52:18;4.30;;;2.57;;
6840;SDS011;3458;53.678;14.080;2022-09-27T14:54:54;2.87;;;2.63;;
6840;SDS011;3458;53.678;14.080;2022-09-27T14:57:20;2.57;;;2.37;;
6840;SDS011;3458;53.678;14.080;2022-09-27T14:59:46;3.57;;;2.47;;
6840;SDS011;3458;53.678;14.080;2022-09-27T15:02:19;2.87;;;2.10;;
6840;SDS011;3458;53.678;14.080;2022-09-27T15:04:46;2.23;;;2.03;;
6840;SDS011;3458;53.678;14.080;2022-09-27T15:07:12;3.40;;;2.23;;
6840;SDS011;3458;53.678;14.080;2022-09-27T15:09:42;3.80;;;2.10;;
6840;SDS011;3458;53.678;14.080;2022-09-27T15:12:08;1.63;;;1.53;;
6840;SDS011;3458;53.678;14.080;2022-09-27T15:14:36;2.90;;;1.33;;
6840;SDS011;3458;53.678;14.080;2022-09-27T15:17:17;1.83;;;1.60;;
6840;SDS011;3458;53.678;14.080;2022-09-27T15:20:17;1.67;;;1.57;;
6840;SDS011;3458;53.678;14.080;2022-09-27T15:22:44;1.77;;;1.27;;
6840;SDS011;3458;53.678;14.080;2022-09-27T15:25:15;2.70;;;1.70;;
6840;SDS011;3458;53.678;14.080;2022-09-27T15:27:45;1.77;;;1.17;;
6840;SDS011;3458;53.678;14.080;2022-09-27T15:30:15;1.60;;;1.50;;
6840;SDS011;3458;53.678;14.080;2022-09-27T15:32:46;2.50;;;1.30;;
6840;SDS011;3458;53.678;14.080;2022-09-27T15:35:14;3.73;;;1.10;;
6840;SDS011;3458;53.678;14.080;2022-09-27T15:37:44;1.80;;;1.60;;
6840;SDS011;3458;53.678;14.080;2022-09-27T15:42:56;2.40;;;1.53;;
6840;SDS011;3458;53.678;14.080;2022-09-27T15:45:41;1.07;;;0.97;;
6840;SDS011;3458;53.678;14.080;2022-09-27T15:48:15;5.30;;;2.87;;
6840;SDS011;3458;53.678;14.080;2022-09-27T15:50:41;4.53;;;2.63;;
6840;SDS011;3458;53.678;14.080;2022-09-27T15:53:10;1.50;;;1.40;;
6840;SDS011;3458;53.678;14.080;2022-09-27T15:55:41;1.40;;;1.30;;
6840;SDS011;3458;53.678;14.080;2022-09-27T15:58:11;2.40;;;1.97;;
6840;SDS011;3458;53.678;14.080;2022-09-27T16:00:49;3.97;;;1.73;;
6840;SDS011;3458;53.678;14.080;2022-09-27T16:03:15;1.00;;;1.00;;
6840;SDS011;3458;53.678;14.080;2022-09-27T16:05:41;2.40;;;1.20;;
6840;SDS011;3458;53.678;14.080;2022-09-27T16:08:08;1.33;;;1.10;;
6840;SDS011;3458;53.678;14.080;2022-09-27T16:10:35;6.60;;;3.90;;
6840;SDS011;3458;53.678;14.080;2022-09-27T16:13:01;2.70;;;2.10;;
6840;SDS011;3458;53.678;14.080;2022-09-27T16:15:27;2.30;;;2.10;;
6840;SDS011;3458;53.678;14.080;2022-09-27T16:17:53;11.33;;;2.80;;
6840;SDS011;3458;53.678;14.080;2022-09-27T16:20:21;1.70;;;1.47;;
6840;SDS011;3458;53.678;14.080;2022-09-27T16:22:49;1.33;;;1.20;;
6840;SDS011;3458;53.678;14.080;2022-09-27T16:25:15;1.47;;;1.37;;
6840;SDS011;3458;53.678;14.080;2022-09-27T16:27:41;1.40;;;1.30;;
6840;SDS011;3458;53.678;14.080;2022-09-27T16:30:07;1.97;;;1.67;;
6840;SDS011;3458;53.678;14.080;2022-09-27T16:32:38;3.27;;;1.40;;
6840;SDS011;3458;53.678;14.080;2022-09-27T16:35:04;3.77;;;1.77;;
6840;SDS011;3458;53.678;14.080;2022-09-27T16:37:30;1.73;;;1.63;;
6840;SDS011;3458;53.678;14.080;2022-09-27T16:39:56;4.33;;;1.67;;
6840;SDS011;3458;53.678;14.080;2022-09-27T16:42:22;3.10;;;1.30;;
6840;SDS011;3458;53.678;14.080;2022-09-27T16:44:48;1.90;;;1.50;;
6840;SDS011;3458;53.678;14.080;2022-09-27T16:47:14;1.53;;;1.40;;
6840;SDS011;3458;53.678;14.080;2022-09-27T16:49:40;2.60;;;2.13;;
6840;SDS011;3458;53.678;14.080;2022-09-27T16:52:24;2.17;;;1.97;;
6840;SDS011;3458;53.678;14.080;2022-09-27T16:54:50;4.13;;;1.53;;
6840;SDS011;3458;53.678;14.080;2022-09-27T16:57:16;5.13;;;1.70;;
6840;SDS011;3458;53.678;14.080;2022-09-27T16:59:42;2.13;;;1.67;;
6840;SDS011;3458;53.678;14.080;2022-09-27T17:02:08;6.53;;;2.33;;
6840;SDS011;3458;53.678;14.080;2022-09-27T17:04:34;1.73;;;1.63;;
6840;SDS011;3458;53.678;14.080;2022-09-27T17:07:00;1.83;;;1.53;;